sensor_id;sensor_type;location;lat;lon;timestamp;pressure;altitude;pressure_sealevel;temperature;humidity
10135;BME280;5107;48.850;8.924;2023-06-14T00:02:16;96344.56;;;14.30;54.08
10135;BME280;5107;48.850;8.924;2023-06-14T00:04:41;96344.56;;;14.30;53.47
10135;BME280;5107;48.850;8.924;2023-06-14T00:07:07;96351.69;;;14.29;53.79
10135;BME280;5107;48.850;8.924;2023-06-14T00:09:35;96347.59;;;14.27;54.22
10135;BME280;5107;48.850;8.924;2023-06-14T00:12:00;96358.19;;;14.20;54.67
10135;BME280;5107;48.850;8.924;2023-06-14T00:14:26;96351.84;;;14.15;53.77
10135;BME280;5107;48.850;8.924;2023-06-14T00:16:51;96344.91;;;14.07;54.20
10135;BME280;5107;48.850;8.924;2023-06-14T00:19:18;96344.72;;;14.02;55.06
10135;BME280;5107;48.850;8.924;2023-06-14T00:21:45;96346.72;;;14.00;55.47
10135;BME280;5107;48.850;8.924;2023-06-14T00:24:10;96342.44;;;13.92;55.61
10135;BME280;5107;48.850;8.924;2023-06-14T00:26:36;96334.13;;;14.02;56.72
10135;BME280;5107;48.850;8.924;2023-06-14T00:29:01;96340.91;;;14.37;55.77
10135;BME280;5107;48.850;8.924;2023-06-14T00:31:26;96343.31;;;14.26;55.55
10135;BME280;5107;48.850;8.924;2023-06-14T00:33:52;96342.50;;;14.19;55.43
10135;BME280;5107;48.850;8.924;2023-06-14T00:36:17;96342.69;;;14.11;55.31
10135;BME280;5107;48.850;8.924;2023-06-14T00:38:42;96343.88;;;14.01;55.50
10135;BME280;5107;48.850;8.924;2023-06-14T00:41:08;96343.69;;;13.96;55.83
10135;BME280;5107;48.850;8.924;2023-06-14T00:43:33;96345.47;;;13.89;55.54
10135;BME280;5107;48.850;8.924;2023-06-14T00:46:00;96345.25;;;13.71;55.91
10135;BME280;5107;48.850;8.924;2023-06-14T00:48:25;96346.44;;;13.62;56.26
10135;BME280;5107;48.850;8.924;2023-06-14T00:50:51;96343.75;;;13.55;56.38
10135;BME280;5107;48.850;8.924;2023-06-14T00:53:18;96347.16;;;13.49;56.69
10135;BME280;5107;48.850;8.924;2023-06-14T00:55:46;96350.16;;;13.40;56.78
10135;BME280;5107;48.850;8.924;2023-06-14T00:58:11;96345.28;;;13.37;56.96
10135;BME280;5107;48.850;8.924;2023-06-14T01:00:37;96347.31;;;13.35;57.02
10135;BME280;5107;48.850;8.924;2023-06-14T01:03:02;96348.31;;;13.34;56.94
10135;BME280;5107;48.850;8.924;2023-06-14T01:05:28;96345.53;;;13.48;57.13
10135;BME280;5107;48.850;8.924;2023-06-14T01:10:47;96346.56;;;13.47;57.35
10135;BME280;5107;48.850;8.924;2023-06-14T01:13:36;96345.59;;;13.55;56.63
10135;BME280;5107;48.850;8.924;2023-06-14T01:16:02;96342.69;;;13.50;57.19
10135;BME280;5107;48.850;8.924;2023-06-14T01:18:28;96354.69;;;13.46;57.50
10135;BME280;5107;48.850;8.924;2023-06-14T01:20:55;96344.88;;;13.40;57.81
10135;BME280;5107;48.850;8.924;2023-06-14T01:23:22;96352.66;;;13.48;57.35
10135;BME280;5107;48.850;8.924;2023-06-14T01:25:48;96348.97;;;13.42;57.48
10135;BME280;5107;48.850;8.924;2023-06-14T01:28:22;96351.63;;;13.49;57.46
10135;BME280;5107;48.850;8.924;2023-06-14T01:30:50;96343.94;;;13.47;57.15
10135;BME280;5107;48.850;8.924;2023-06-14T01:33:20;96347.97;;;13.43;56.88
10135;BME280;5107;48.850;8.924;2023-06-14T01:35:51;96349.16;;;13.41;57.25
10135;BME280;5107;48.850;8.924;2023-06-14T01:38:21;96356.91;;;13.42;57.70
10135;BME280;5107;48.850;8.924;2023-06-14T01:40:48;96352.25;;;13.44;57.36
10135;BME280;5107;48.850;8.924;2023-06-14T01:43:16;96346.31;;;13.36;58.45
10135;BME280;5107;48.850;8.924;2023-06-14T01:45:42;96350.16;;;13.33;59.42
10135;BME280;5107;48.850;8.924;2023-06-14T01:48:08;96356.41;;;13.25;59.46
10135;BME280;5107;48.850;8.924;2023-06-14T01:50:34;96350.88;;;13.14;59.84
10135;BME280;5107;48.850;8.924;2023-06-14T01:53:00;96349.09;;;13.00;60.19
10135;BME280;5107;48.850;8.924;2023-06-14T01:55:25;96350.75;;;13.01;60.41
10135;BME280;5107;48.850;8.924;2023-06-14T01:57:51;96352.91;;;12.90;60.86
10135;BME280;5107;48.850;8.924;2023-06-14T02:00:17;96353.91;;;12.89;61.37
10135;BME280;5107;48.850;8.924;2023-06-14T02:02:43;96354.47;;;12.78;61.86
10135;BME280;5107;48.850;8.924;2023-06-14T02:05:09;96350.00;;;12.79;61.95
10135;BME280;5107;48.850;8.924;2023-06-14T02:07:36;96343.00;;;12.99;63.69
10135;BME280;5107;48.850;8.924;2023-06-14T02:10:02;96353.09;;;13.17;62.87
10135;BME280;5107;48.850;8.924;2023-06-14T02:12:27;96352.03;;;13.11;62.16
10135;BME280;5107;48.850;8.924;2023-06-14T02:14:53;96353.19;;;13.02;61.46
10135;BME280;5107;48.850;8.924;2023-06-14T02:17:19;96356.63;;;12.96;61.36
10135;BME280;5107;48.850;8.924;2023-06-14T02:19:44;96353.09;;;12.89;61.71
10135;BME280;5107;48.850;8.924;2023-06-14T02:22:10;96347.34;;;12.79;62.07
10135;BME280;5107;48.850;8.924;2023-06-14T02:24:35;96355.22;;;12.72;62.58
10135;BME280;5107;48.850;8.924;2023-06-14T02:27:01;96351.22;;;13.11;63.55
10135;BME280;5107;48.850;8.924;2023-06-14T02:29:27;96349.38;;;13.05;63.53
10135;BME280;5107;48.850;8.924;2023-06-14T02:31:52;96350.91;;;12.92;63.19
10135;BME280;5107;48.850;8.924;2023-06-14T02:34:17;96354.94;;;12.88;63.52
10135;BME280;5107;48.850;8.924;2023-06-14T02:36:45;96355.66;;;12.76;63.32
10135;BME280;5107;48.850;8.924;2023-06-14T02:39:11;96350.03;;;12.58;63.52
10135;BME280;5107;48.850;8.924;2023-06-14T02:41:37;96353.44;;;12.51;63.60
10135;BME280;5107;48.850;8.924;2023-06-14T02:44:02;96355.44;;;12.49;64.03
10135;BME280;5107;48.850;8.924;2023-06-14T02:46:28;96352.38;;;12.25;64.61
10135;BME280;5107;48.850;8.924;2023-06-14T02:48:53;96350.13;;;12.22;64.83
10135;BME280;5107;48.850;8.924;2023-06-14T02:51:19;96356.41;;;12.21;65.19
10135;BME280;5107;48.850;8.924;2023-06-14T02:53:44;96351.06;;;12.14;65.88
10135;BME280;5107;48.850;8.924;2023-06-14T02:56:10;96354.22;;;12.03;65.95
10135;BME280;5107;48.850;8.924;2023-06-14T02:58:37;96349.94;;;12.02;65.95
10135;BME280;5107;48.850;8.924;2023-06-14T03:01:04;96350.75;;;12.02;66.29
10135;BME280;5107;48.850;8.924;2023-06-14T03:03:31;96351.56;;;12.24;65.72
10135;BME280;5107;48.850;8.924;2023-06-14T03:05:56;96351.69;;;12.16;65.76
10135;BME280;5107;48.850;8.924;2023-06-14T03:08:22;96352.28;;;12.11;65.69
10135;BME280;5107;48.850;8.924;2023-06-14T03:10:52;96350.75;;;12.02;66.03
10135;BME280;5107;48.850;8.924;2023-06-14T03:13:18;96352.13;;;11.98;65.75
10135;BME280;5107;48.850;8.924;2023-06-14T03:15:46;96346.13;;;12.04;65.65
10135;BME280;5107;48.850;8.924;2023-06-14T03:18:14;96356.16;;;11.94;66.37
10135;BME280;5107;48.850;8.924;2023-06-14T03:20:41;96354.34;;;11.95;66.14
10135;BME280;5107;48.850;8.924;2023-06-14T03:23:07;96355.63;;;11.84;66.20
10135;BME280;5107;48.850;8.924;2023-06-14T03:25:32;96354.06;;;11.90;66.47
10135;BME280;5107;48.850;8.924;2023-06-14T03:28:04;96354.88;;;11.90;66.00
10135;BME280;5107;48.850;8.924;2023-06-14T03:30:30;96359.31;;;11.90;65.80
10135;BME280;5107;48.850;8.924;2023-06-14T03:32:56;96362.41;;;11.93;65.73
10135;BME280;5107;48.850;8.924;2023-06-14T03:35:22;96362.78;;;11.90;66.08
10135;BME280;5107;48.850;8.924;2023-06-14T03:37:48;96367.88;;;11.92;66.03
10135;BME280;5107;48.850;8.924;2023-06-14T03:40:15;96375.44;;;11.95;65.45
10135;BME280;5107;48.850;8.924;2023-06-14T03:42:41;96381.88;;;11.92;65.68
10135;BME280;5107;48.850;8.924;2023-06-14T03:45:07;96387.16;;;11.92;65.52
10135;BME280;5107;48.850;8.924;2023-06-14T03:47:33;96381.88;;;11.92;65.90
10135;BME280;5107;48.850;8.924;2023-06-14T03:49:59;96388.22;;;11.98;66.03
10135;BME280;5107;48.850;8.924;2023-06-14T03:52:25;96388.63;;;11.95;65.49
10135;BME280;5107;48.850;8.924;2023-06-14T03:54:51;96391.56;;;12.06;65.23
10135;BME280;5107;48.850;8.924;2023-06-14T03:57:17;96401.56;;;12.11;65.26
10135;BME280;5107;48.850;8.924;2023-06-14T03:59:42;96394.84;;;12.08;65.22
10135;BME280;5107;48.850;8.924;2023-06-14T04:02:08;96396.00;;;12.21;65.42
10135;BME280;5107;48.850;8.924;2023-06-14T04:04:34;96399.00;;;12.60;65.15
10135;BME280;5107;48.850;8.924;2023-06-14T04:07:00;96405.94;;;13.17;62.51
10135;BME280;5107;48.850;8.924;2023-06-14T04:09:28;96404.28;;;13.91;59.93
10135;BME280;5107;48.850;8.924;2023-06-14T04:11:54;96403.69;;;14.70;57.70
10135;BME280;5107;48.850;8.924;2023-06-14T04:14:20;96410.75;;;15.62;55.57
10135;BME280;5107;48.850;8.924;2023-06-14T04:16:47;96414.53;;;16.68;54.42
10135;BME280;5107;48.850;8.924;2023-06-14T04:19:13;96408.03;;;17.93;51.79
10135;BME280;5107;48.850;8.924;2023-06-14T04:21:38;96412.47;;;18.77;49.04
10135;BME280;5107;48.850;8.924;2023-06-14T04:24:04;96415.56;;;19.51;47.05
10135;BME280;5107;48.850;8.924;2023-06-14T04:26:29;96418.41;;;20.07;44.99
10135;BME280;5107;48.850;8.924;2023-06-14T04:28:59;96426.97;;;20.78;43.64
10135;BME280;5107;48.850;8.924;2023-06-14T04:31:30;96420.19;;;21.04;41.51
10135;BME280;5107;48.850;8.924;2023-06-14T04:33:59;96424.84;;;21.42;41.29
10135;BME280;5107;48.850;8.924;2023-06-14T04:36:24;96424.16;;;21.51;40.96
10135;BME280;5107;48.850;8.924;2023-06-14T04:38:52;96423.28;;;22.23;40.15
10135;BME280;5107;48.850;8.924;2023-06-14T04:41:22;96422.41;;;22.44;38.86
10135;BME280;5107;48.850;8.924;2023-06-14T04:43:49;96425.16;;;22.98;37.98
10135;BME280;5107;48.850;8.924;2023-06-14T04:46:14;96426.34;;;23.12;37.53
10135;BME280;5107;48.850;8.924;2023-06-14T04:48:40;96430.81;;;23.33;37.64
10135;BME280;5107;48.850;8.924;2023-06-14T04:51:08;96421.78;;;24.49;36.05
10135;BME280;5107;48.850;8.924;2023-06-14T04:53:34;96427.28;;;25.05;34.98
10135;BME280;5107;48.850;8.924;2023-06-14T04:55:59;96436.66;;;24.77;34.88
10135;BME280;5107;48.850;8.924;2023-06-14T04:58:26;96429.72;;;25.16;34.44
10135;BME280;5107;48.850;8.924;2023-06-14T05:00:52;96430.00;;;25.00;34.30
10135;BME280;5107;48.850;8.924;2023-06-14T05:03:18;96438.59;;;24.91;33.31
10135;BME280;5107;48.850;8.924;2023-06-14T05:05:46;96444.00;;;25.12;33.79
10135;BME280;5107;48.850;8.924;2023-06-14T05:08:11;96441.59;;;25.30;33.20
10135;BME280;5107;48.850;8.924;2023-06-14T05:10:36;96449.97;;;25.59;32.74
10135;BME280;5107;48.850;8.924;2023-06-14T05:13:02;96444.28;;;25.51;32.83
10135;BME280;5107;48.850;8.924;2023-06-14T05:15:27;96446.97;;;25.51;33.23
10135;BME280;5107;48.850;8.924;2023-06-14T05:17:54;96446.97;;;25.41;32.84
10135;BME280;5107;48.850;8.924;2023-06-14T05:20:24;96449.41;;;25.62;33.22
10135;BME280;5107;48.850;8.924;2023-06-14T05:22:52;96451.84;;;25.59;32.49
10135;BME280;5107;48.850;8.924;2023-06-14T05:25:20;96453.97;;;25.01;33.45
10135;BME280;5107;48.850;8.924;2023-06-14T05:27:47;96453.34;;;24.74;34.31
10135;BME280;5107;48.850;8.924;2023-06-14T05:30:13;96459.69;;;24.37;34.46
10135;BME280;5107;48.850;8.924;2023-06-14T05:32:39;96464.34;;;23.58;35.48
10135;BME280;5107;48.850;8.924;2023-06-14T05:35:05;96467.69;;;22.62;36.53
10135;BME280;5107;48.850;8.924;2023-06-14T05:37:31;96472.34;;;22.94;36.90
10135;BME280;5107;48.850;8.924;2023-06-14T05:39:56;96468.59;;;23.27;36.57
10135;BME280;5107;48.850;8.924;2023-06-14T05:42:21;96463.91;;;22.37;37.77
10135;BME280;5107;48.850;8.924;2023-06-14T05:44:47;96468.16;;;22.11;38.43
10135;BME280;5107;48.850;8.924;2023-06-14T05:47:12;96468.53;;;21.98;39.09
10135;BME280;5107;48.850;8.924;2023-06-14T05:49:37;96474.25;;;22.06;38.44
10135;BME280;5107;48.850;8.924;2023-06-14T05:52:03;96465.28;;;21.62;39.28
10135;BME280;5107;48.850;8.924;2023-06-14T05:54:28;96469.84;;;21.28;39.97
10135;BME280;5107;48.850;8.924;2023-06-14T05:56:54;96472.13;;;21.36;40.07
10135;BME280;5107;48.850;8.924;2023-06-14T05:59:19;96476.19;;;21.55;40.37
10135;BME280;5107;48.850;8.924;2023-06-14T06:01:45;96477.19;;;22.26;39.85
10135;BME280;5107;48.850;8.924;2023-06-14T06:04:11;96481.31;;;21.95;39.10
10135;BME280;5107;48.850;8.924;2023-06-14T06:06:37;96483.81;;;21.64;39.85
10135;BME280;5107;48.850;8.924;2023-06-14T06:09:02;96484.38;;;20.87;41.75
10135;BME280;5107;48.850;8.924;2023-06-14T06:11:27;96489.34;;;21.40;41.28
10135;BME280;5107;48.850;8.924;2023-06-14T06:13:53;96488.78;;;21.10;41.03
10135;BME280;5107;48.850;8.924;2023-06-14T06:16:18;96494.50;;;21.80;42.04
10135;BME280;5107;48.850;8.924;2023-06-14T06:18:44;96493.88;;;21.73;40.53
10135;BME280;5107;48.850;8.924;2023-06-14T06:21:09;96488.13;;;21.31;41.75
10135;BME280;5107;48.850;8.924;2023-06-14T06:23:34;96482.03;;;21.36;41.25
10135;BME280;5107;48.850;8.924;2023-06-14T06:26:00;96495.75;;;21.56;40.64
10135;BME280;5107;48.850;8.924;2023-06-14T06:28:26;96487.53;;;21.79;40.72
10135;BME280;5107;48.850;8.924;2023-06-14T06:30:51;96495.03;;;22.38;39.93
10135;BME280;5107;48.850;8.924;2023-06-14T06:33:17;96501.31;;;22.70;39.21
10135;BME280;5107;48.850;8.924;2023-06-14T06:35:42;96493.09;;;22.11;39.99
10135;BME280;5107;48.850;8.924;2023-06-14T06:38:08;96494.25;;;21.82;40.81
10135;BME280;5107;48.850;8.924;2023-06-14T06:40:35;96496.53;;;21.90;41.66
10135;BME280;5107;48.850;8.924;2023-06-14T06:43:01;96486.22;;;21.82;40.76
10135;BME280;5107;48.850;8.924;2023-06-14T06:47:52;96493.09;;;22.77;38.79
10135;BME280;5107;48.850;8.924;2023-06-14T06:50:18;96502.91;;;22.66;40.10
10135;BME280;5107;48.850;8.924;2023-06-14T06:52:44;96508.88;;;22.29;39.72
10135;BME280;5107;48.850;8.924;2023-06-14T06:55:10;96511.78;;;22.06;40.19
10135;BME280;5107;48.850;8.924;2023-06-14T06:57:36;96516.25;;;22.17;40.39
10135;BME280;5107;48.850;8.924;2023-06-14T07:00:02;96515.47;;;21.67;40.47
10135;BME280;5107;48.850;8.924;2023-06-14T07:02:28;96513.44;;;21.74;41.18
10135;BME280;5107;48.850;8.924;2023-06-14T07:04:53;96522.94;;;21.65;41.43
10135;BME280;5107;48.850;8.924;2023-06-14T07:07:18;96521.78;;;21.27;42.19
10135;BME280;5107;48.850;8.924;2023-06-14T07:09:44;96525.75;;;21.91;41.79
10135;BME280;5107;48.850;8.924;2023-06-14T07:12:09;96514.38;;;22.01;41.30
10135;BME280;5107;48.850;8.924;2023-06-14T07:14:35;96525.34;;;22.16;39.73
10135;BME280;5107;48.850;8.924;2023-06-14T07:17:00;96523.25;;;22.40;40.15
10135;BME280;5107;48.850;8.924;2023-06-14T07:19:26;96527.13;;;21.94;40.00
10135;BME280;5107;48.850;8.924;2023-06-14T07:21:51;96527.25;;;22.21;40.70
10135;BME280;5107;48.850;8.924;2023-06-14T07:24:17;96537.84;;;21.94;40.08
10135;BME280;5107;48.850;8.924;2023-06-14T07:26:42;96541.34;;;21.78;40.65
10135;BME280;5107;48.850;8.924;2023-06-14T07:29:07;96540.22;;;21.40;40.32
10135;BME280;5107;48.850;8.924;2023-06-14T07:31:33;96545.59;;;21.57;40.91
10135;BME280;5107;48.850;8.924;2023-06-14T07:33:58;96542.91;;;22.07;40.77
10135;BME280;5107;48.850;8.924;2023-06-14T07:36:23;96545.16;;;22.15;39.86
10135;BME280;5107;48.850;8.924;2023-06-14T07:38:49;96551.59;;;22.36;39.44
10135;BME280;5107;48.850;8.924;2023-06-14T07:41:14;96558.97;;;22.46;39.52
10135;BME280;5107;48.850;8.924;2023-06-14T07:43:39;96554.91;;;22.82;39.43
10135;BME280;5107;48.850;8.924;2023-06-14T07:46:05;96557.94;;;23.44;38.29
10135;BME280;5107;48.850;8.924;2023-06-14T07:48:30;96555.94;;;23.56;37.57
10135;BME280;5107;48.850;8.924;2023-06-14T07:50:56;96560.97;;;23.79;38.82
10135;BME280;5107;48.850;8.924;2023-06-14T07:53:21;96558.59;;;23.51;37.54
10135;BME280;5107;48.850;8.924;2023-06-14T07:55:46;96559.06;;;23.21;36.97
10135;BME280;5107;48.850;8.924;2023-06-14T07:58:12;96552.94;;;22.77;38.44
10135;BME280;5107;48.850;8.924;2023-06-14T08:00:38;96560.47;;;22.75;39.58
10135;BME280;5107;48.850;8.924;2023-06-14T08:03:03;96561.00;;;22.99;41.13
10135;BME280;5107;48.850;8.924;2023-06-14T08:05:29;96555.81;;;23.46;39.17
10135;BME280;5107;48.850;8.924;2023-06-14T08:07:55;96555.16;;;23.93;37.70
10135;BME280;5107;48.850;8.924;2023-06-14T08:10:21;96559.53;;;24.04;39.04
10135;BME280;5107;48.850;8.924;2023-06-14T08:12:46;96558.69;;;24.35;38.25
10135;BME280;5107;48.850;8.924;2023-06-14T08:15:12;96563.41;;;24.65;36.43
10135;BME280;5107;48.850;8.924;2023-06-14T08:17:37;96561.59;;;24.81;36.62
10135;BME280;5107;48.850;8.924;2023-06-14T08:20:03;96559.97;;;24.80;37.11
10135;BME280;5107;48.850;8.924;2023-06-14T08:22:30;96559.28;;;24.42;37.22
10135;BME280;5107;48.850;8.924;2023-06-14T08:24:59;96562.00;;;24.52;36.76
10135;BME280;5107;48.850;8.924;2023-06-14T08:27:24;96566.28;;;24.43;37.69
10135;BME280;5107;48.850;8.924;2023-06-14T08:29:50;96566.38;;;24.64;36.75
10135;BME280;5107;48.850;8.924;2023-06-14T08:32:15;96566.47;;;24.84;37.91
10135;BME280;5107;48.850;8.924;2023-06-14T08:34:41;96564.97;;;25.13;36.65
10135;BME280;5107;48.850;8.924;2023-06-14T08:37:06;96565.19;;;24.44;35.91
10135;BME280;5107;48.850;8.924;2023-06-14T08:39:32;96569.16;;;24.27;37.29
10135;BME280;5107;48.850;8.924;2023-06-14T08:41:58;96568.88;;;23.96;37.56
10135;BME280;5107;48.850;8.924;2023-06-14T08:44:25;96568.28;;;23.84;37.67
10135;BME280;5107;48.850;8.924;2023-06-14T08:46:50;96579.41;;;24.03;39.37
10135;BME280;5107;48.850;8.924;2023-06-14T08:49:17;96580.56;;;23.48;37.06
10135;BME280;5107;48.850;8.924;2023-06-14T08:51:43;96573.56;;;23.74;38.55
10135;BME280;5107;48.850;8.924;2023-06-14T08:54:11;96575.28;;;24.22;38.44
10135;BME280;5107;48.850;8.924;2023-06-14T08:56:38;96579.13;;;24.83;37.65
10135;BME280;5107;48.850;8.924;2023-06-14T08:59:04;96578.19;;;25.25;37.25
10135;BME280;5107;48.850;8.924;2023-06-14T09:01:35;96583.25;;;25.11;35.70
10135;BME280;5107;48.850;8.924;2023-06-14T09:04:01;96573.47;;;24.85;37.96
10135;BME280;5107;48.850;8.924;2023-06-14T09:06:27;96574.72;;;25.35;36.90
10135;BME280;5107;48.850;8.924;2023-06-14T09:08:54;96578.94;;;24.11;37.21
10135;BME280;5107;48.850;8.924;2023-06-14T09:11:21;96579.41;;;23.98;37.23
10135;BME280;5107;48.850;8.924;2023-06-14T09:13:47;96576.34;;;23.84;37.73
10135;BME280;5107;48.850;8.924;2023-06-14T09:16:12;96583.19;;;24.39;38.28
10135;BME280;5107;48.850;8.924;2023-06-14T09:18:40;96573.63;;;24.58;37.32
10135;BME280;5107;48.850;8.924;2023-06-14T09:21:10;96581.13;;;25.08;37.18
10135;BME280;5107;48.850;8.924;2023-06-14T09:23:46;96575.81;;;25.44;36.06
10135;BME280;5107;48.850;8.924;2023-06-14T09:26:17;96583.97;;;25.84;36.25
10135;BME280;5107;48.850;8.924;2023-06-14T09:28:45;96579.38;;;25.80;35.11
10135;BME280;5107;48.850;8.924;2023-06-14T09:31:15;96581.25;;;25.84;34.23
10135;BME280;5107;48.850;8.924;2023-06-14T09:33:45;96580.72;;;26.07;34.45
10135;BME280;5107;48.850;8.924;2023-06-14T09:36:20;96585.81;;;25.63;34.40
10135;BME280;5107;48.850;8.924;2023-06-14T09:38:56;96587.16;;;25.51;34.61
10135;BME280;5107;48.850;8.924;2023-06-14T09:43:58;96587.19;;;25.86;34.29
10135;BME280;5107;48.850;8.924;2023-06-14T09:46:27;96597.38;;;25.44;34.87
10135;BME280;5107;48.850;8.924;2023-06-14T09:48:52;96591.97;;;25.54;36.34
10135;BME280;5107;48.850;8.924;2023-06-14T09:51:18;96580.06;;;25.29;36.23
10135;BME280;5107;48.850;8.924;2023-06-14T09:53:46;96591.50;;;25.67;35.27
10135;BME280;5107;48.850;8.924;2023-06-14T09:56:15;96581.25;;;26.15;33.68
10135;BME280;5107;48.850;8.924;2023-06-14T09:58:43;96588.28;;;25.85;33.02
10135;BME280;5107;48.850;8.924;2023-06-14T10:01:09;96586.91;;;25.88;33.20
10135;BME280;5107;48.850;8.924;2023-06-14T10:03:39;96584.19;;;25.57;33.57
10135;BME280;5107;48.850;8.924;2023-06-14T10:06:05;96583.88;;;25.39;33.21
10135;BME280;5107;48.850;8.924;2023-06-14T10:08:36;96590.91;;;25.50;34.79
10135;BME280;5107;48.850;8.924;2023-06-14T10:11:02;96579.59;;;25.43;33.39
10135;BME280;5107;48.850;8.924;2023-06-14T10:13:28;96580.19;;;25.85;33.77
10135;BME280;5107;48.850;8.924;2023-06-14T10:16:12;96586.38;;;26.26;34.20
10135;BME280;5107;48.850;8.924;2023-06-14T10:19:00;96584.50;;;26.01;34.69
10135;BME280;5107;48.850;8.924;2023-06-14T10:24:28;96579.28;;;25.34;33.46
10135;BME280;5107;48.850;8.924;2023-06-14T10:26:57;96578.69;;;25.02;33.07
10135;BME280;5107;48.850;8.924;2023-06-14T10:29:23;96573.28;;;25.07;34.25
10135;BME280;5107;48.850;8.924;2023-06-14T10:31:49;96570.47;;;25.89;32.08
10135;BME280;5107;48.850;8.924;2023-06-14T10:37:20;96571.44;;;26.69;29.64
10135;BME280;5107;48.850;8.924;2023-06-14T10:39:45;96567.38;;;26.67;29.58
10135;BME280;5107;48.850;8.924;2023-06-14T10:42:11;96563.09;;;26.61;30.05
10135;BME280;5107;48.850;8.924;2023-06-14T10:47:06;96566.22;;;26.88;30.67
10135;BME280;5107;48.850;8.924;2023-06-14T10:49:45;96566.97;;;27.58;29.33
10135;BME280;5107;48.850;8.924;2023-06-14T10:52:11;96580.91;;;27.70;29.12
10135;BME280;5107;48.850;8.924;2023-06-14T10:55:05;96575.59;;;27.60;28.58
10135;BME280;5107;48.850;8.924;2023-06-14T10:57:32;96577.94;;;26.53;28.86
10135;BME280;5107;48.850;8.924;2023-06-14T11:00:02;96579.91;;;25.77;29.59
10135;BME280;5107;48.850;8.924;2023-06-14T11:02:51;96577.47;;;26.16;29.55
10135;BME280;5107;48.850;8.924;2023-06-14T11:05:24;96570.94;;;26.52;28.77
10135;BME280;5107;48.850;8.924;2023-06-14T11:10:43;96565.56;;;27.16;28.27
10135;BME280;5107;48.850;8.924;2023-06-14T11:13:10;96567.81;;;26.89;29.03
10135;BME280;5107;48.850;8.924;2023-06-14T11:15:38;96560.19;;;25.51;29.77
10135;BME280;5107;48.850;8.924;2023-06-14T11:18:07;96571.41;;;25.02;31.15
10135;BME280;5107;48.850;8.924;2023-06-14T11:20:36;96573.81;;;24.99;31.29
10135;BME280;5107;48.850;8.924;2023-06-14T11:23:02;96571.72;;;25.21;30.10
10135;BME280;5107;48.850;8.924;2023-06-14T11:25:28;96568.25;;;25.46;30.42
10135;BME280;5107;48.850;8.924;2023-06-14T11:27:54;96575.59;;;25.96;30.48
10135;BME280;5107;48.850;8.924;2023-06-14T11:30:20;96574.47;;;26.37;29.77
10135;BME280;5107;48.850;8.924;2023-06-14T11:32:47;96573.78;;;26.91;30.12
10135;BME280;5107;48.850;8.924;2023-06-14T11:35:13;96576.91;;;27.63;29.29
10135;BME280;5107;48.850;8.924;2023-06-14T11:37:39;96570.88;;;27.32;28.29
10135;BME280;5107;48.850;8.924;2023-06-14T11:40:06;96570.38;;;27.25;29.45
10135;BME280;5107;48.850;8.924;2023-06-14T11:42:44;96571.84;;;27.90;29.79
10135;BME280;5107;48.850;8.924;2023-06-14T11:45:12;96566.28;;;28.05;28.13
10135;BME280;5107;48.850;8.924;2023-06-14T11:47:38;96578.44;;;28.42;26.86
10135;BME280;5107;48.850;8.924;2023-06-14T11:50:06;96574.72;;;28.33;27.35
10135;BME280;5107;48.850;8.924;2023-06-14T11:52:32;96574.25;;;27.58;29.34
10135;BME280;5107;48.850;8.924;2023-06-14T11:54:58;96567.50;;;27.11;29.34
10135;BME280;5107;48.850;8.924;2023-06-14T11:57:24;96575.03;;;26.29;30.28
10135;BME280;5107;48.850;8.924;2023-06-14T11:59:50;96575.75;;;26.65;30.74
10135;BME280;5107;48.850;8.924;2023-06-14T12:02:16;96566.34;;;27.22;29.88
10135;BME280;5107;48.850;8.924;2023-06-14T12:04:42;96562.00;;;27.26;29.62
10135;BME280;5107;48.850;8.924;2023-06-14T12:07:12;96557.88;;;26.79;28.70
10135;BME280;5107;48.850;8.924;2023-06-14T12:09:41;96554.72;;;26.57;28.90
10135;BME280;5107;48.850;8.924;2023-06-14T12:12:09;96568.69;;;26.79;28.63
10135;BME280;5107;48.850;8.924;2023-06-14T12:14:36;96565.06;;;26.04;28.97
10135;BME280;5107;48.850;8.924;2023-06-14T12:17:05;96570.44;;;26.25;29.14
10135;BME280;5107;48.850;8.924;2023-06-14T12:19:41;96568.00;;;26.13;29.60
10135;BME280;5107;48.850;8.924;2023-06-14T12:22:09;96566.69;;;26.36;30.08
10135;BME280;5107;48.850;8.924;2023-06-14T12:24:35;96562.38;;;25.89;31.47
10135;BME280;5107;48.850;8.924;2023-06-14T12:27:00;96560.69;;;25.38;31.35
10135;BME280;5107;48.850;8.924;2023-06-14T12:29:28;96565.91;;;24.87;31.69
10135;BME280;5107;48.850;8.924;2023-06-14T12:31:54;96561.56;;;25.94;31.92
10135;BME280;5107;48.850;8.924;2023-06-14T12:34:21;96569.09;;;26.12;30.51
10135;BME280;5107;48.850;8.924;2023-06-14T12:36:47;96562.09;;;26.01;31.43
10135;BME280;5107;48.850;8.924;2023-06-14T12:39:12;96565.59;;;25.61;30.98
10135;BME280;5107;48.850;8.924;2023-06-14T12:41:38;96552.63;;;26.44;30.56
10135;BME280;5107;48.850;8.924;2023-06-14T12:44:06;96559.63;;;27.14;30.06
10135;BME280;5107;48.850;8.924;2023-06-14T12:46:32;96556.97;;;27.48;28.76
10135;BME280;5107;48.850;8.924;2023-06-14T12:48:57;96553.19;;;27.05;29.09
10135;BME280;5107;48.850;8.924;2023-06-14T12:51:22;96563.19;;;27.10;29.25
10135;BME280;5107;48.850;8.924;2023-06-14T12:53:48;96558.72;;;27.29;29.50
10135;BME280;5107;48.850;8.924;2023-06-14T12:56:14;96561.16;;;27.31;28.79
10135;BME280;5107;48.850;8.924;2023-06-14T12:58:41;96563.97;;;27.60;28.62
10135;BME280;5107;48.850;8.924;2023-06-14T13:01:06;96567.00;;;27.48;28.10
10135;BME280;5107;48.850;8.924;2023-06-14T13:03:31;96567.38;;;27.75;28.83
10135;BME280;5107;48.850;8.924;2023-06-14T13:05:59;96566.97;;;28.21;28.10
10135;BME280;5107;48.850;8.924;2023-06-14T13:08:24;96564.88;;;27.40;27.97
10135;BME280;5107;48.850;8.924;2023-06-14T13:10:49;96559.47;;;26.86;28.78
10135;BME280;5107;48.850;8.924;2023-06-14T13:13:15;96560.47;;;27.54;28.44
10135;BME280;5107;48.850;8.924;2023-06-14T13:15:40;96559.31;;;27.65;28.26
10135;BME280;5107;48.850;8.924;2023-06-14T13:18:05;96567.56;;;27.84;28.03
10135;BME280;5107;48.850;8.924;2023-06-14T13:20:31;96560.88;;;28.05;28.13
10135;BME280;5107;48.850;8.924;2023-06-14T13:22:57;96566.19;;;28.20;26.77
10135;BME280;5107;48.850;8.924;2023-06-14T13:25:22;96565.91;;;28.46;26.05
10135;BME280;5107;48.850;8.924;2023-06-14T13:27:48;96570.63;;;28.06;26.44